Time;durP1;ratioP1;P1;durP2;ratioP2;P2;SDS_P1;SDS_P2;PMS_P1;PMS_P2;Temp;Humidity;BMP_temperature;BMP_pressure;BME280_temperature;BME280_humidity;BME280_pressure;Samples;Min_cycle;Max_cycle;Signal;HPM_P1;HPM_P2
2023/03/29 00:01:16;;;;;;;6.30;3.70;;;;;;;;;;5071524;28;20374;-75
2023/03/29 00:03:46;;;;;;;7.13;3.85;;;;;;;;;;5053397;28;20055;-75
2023/03/29 00:06:20;;;;;;;6.25;3.50;;;;;;;;;;5071646;28;20051;-75
2023/03/29 00:08:50;;;;;;;7.25;3.50;;;;;;;;;;5053495;28;20135;-75
2023/03/29 00:11:16;;;;;;;7.65;3.53;;;;;;;;;;5036810;28;20090;-75
2023/03/29 00:13:43;;;;;;;6.65;3.97;;;;;;;;;;5071266;28;20058;-75
2023/03/29 00:16:09;;;;;;;5.88;3.70;;;;;;;;;;5070714;28;20040;-75
2023/03/29 00:18:35;;;;;;;5.03;3.42;;;;;;;;;;5075364;28;20049;-75
2023/03/29 00:21:02;;;;;;;5.18;3.30;;;;;;;;;;5074801;28;20143;-75
2023/03/29 00:23:28;;;;;;;6.05;3.72;;;;;;;;;;5056093;28;20067;-75
2023/03/29 00:25:54;;;;;;;5.25;3.22;;;;;;;;;;5057158;28;20044;-75
2023/03/29 00:28:20;;;;;;;6.10;3.63;;;;;;;;;;5062095;28;20049;-75
2023/03/29 00:30:46;;;;;;;5.82;3.25;;;;;;;;;;5054975;28;20111;-75
2023/03/29 00:33:13;;;;;;;6.63;3.25;;;;;;;;;;5037046;28;20476;-75
2023/03/29 00:35:41;;;;;;;6.05;3.67;;;;;;;;;;5037154;28;20033;-75
2023/03/29 00:38:07;;;;;;;8.40;3.97;;;;;;;;;;5054863;28;20056;-75
2023/03/29 00:40:34;;;;;;;6.20;3.67;;;;;;;;;;5036878;28;20113;-75
2023/03/29 00:43:00;;;;;;;8.43;3.70;;;;;;;;;;5054526;28;20051;-75
2023/03/29 00:45:29;;;;;;;5.57;3.40;;;;;;;;;;5054849;28;20045;-75
2023/03/29 00:48:02;;;;;;;8.15;3.63;;;;;;;;;;5036847;28;20516;-75
2023/03/29 00:50:30;;;;;;;8.23;3.80;;;;;;;;;;5036819;28;20401;-75
2023/03/29 00:53:20;;;;;;;5.43;3.25;;;;;;;;;;5036632;28;20143;-75
2023/03/29 00:55:52;;;;;;;8.50;3.80;;;;;;;;;;5036404;28;20041;-75
2023/03/29 00:58:20;;;;;;;6.18;3.63;;;;;;;;;;5054423;28;20052;-74
2023/03/29 01:00:54;;;;;;;6.70;3.40;;;;;;;;;;5019862;28;20077;-75
2023/03/29 01:03:26;;;;;;;6.88;3.47;;;;;;;;;;5036346;28;20555;-75
2023/03/29 01:06:01;;;;;;;7.47;3.58;;;;;;;;;;5054075;28;20174;-75
2023/03/29 01:08:30;;;;;;;5.75;3.28;;;;;;;;;;5053922;28;20524;-75
2023/03/29 01:10:59;;;;;;;7.38;3.42;;;;;;;;;;5035924;28;20045;-75
2023/03/29 01:13:33;;;;;;;9.40;3.40;;;;;;;;;;5053482;28;20406;-75
2023/03/29 01:16:00;;;;;;;6.88;3.53;;;;;;;;;;5053963;28;20041;-75
2023/03/29 01:18:26;;;;;;;5.63;3.13;;;;;;;;;;5054022;28;20451;-75
2023/03/29 01:21:03;;;;;;;5.63;3.60;;;;;;;;;;5019359;28;20551;-75
2023/03/29 01:23:29;;;;;;;5.28;3.50;;;;;;;;;;5019390;28;20048;-75
2023/03/29 01:26:19;;;;;;;6.25;3.20;;;;;;;;;;5053765;28;20080;-75
2023/03/29 01:28:55;;;;;;;5.53;3.33;;;;;;;;;;5057458;28;20557;-75
2023/03/29 01:31:24;;;;;;;7.55;3.25;;;;;;;;;;5052945;28;20132;-75
2023/03/29 01:33:53;;;;;;;7.13;3.35;;;;;;;;;;5053803;28;20056;-75
2023/03/29 01:36:35;;;;;;;6.30;3.20;;;;;;;;;;5053541;28;20053;-75
2023/03/29 01:39:05;;;;;;;6.85;3.67;;;;;;;;;;5035707;28;20041;-75
2023/03/29 01:42:04;;;;;;;5.28;3.45;;;;;;;;;;5035626;28;20044;-75
2023/03/29 01:44:35;;;;;;;5.93;3.50;;;;;;;;;;4986556;28;20084;-75
2023/03/29 01:47:11;;;;;;;5.50;3.13;;;;;;;;;;5053562;28;20045;-74
2023/03/29 01:49:36;;;;;;;;;;;;;;;;;;5035794;28;20056;-75
2023/03/29 01:52:29;;;;;;;6.32;3.50;;;;;;;;;;5035541;28;19924;-74
2023/03/29 01:55:02;;;;;;;6.13;3.50;;;;;;;;;;5050139;28;20056;-77
2023/03/29 01:57:30;;;;;;;6.45;3.78;;;;;;;;;;5018679;28;20358;-74
2023/03/29 01:59:57;;;;;;;8.40;3.88;;;;;;;;;;5016335;28;20242;-75
2023/03/29 02:02:24;;;;;;;7.20;3.80;;;;;;;;;;5045006;28;20056;-75
2023/03/29 02:04:52;;;;;;;6.78;3.85;;;;;;;;;;5049461;28;20041;-74
2023/03/29 02:07:20;;;;;;;6.28;3.70;;;;;;;;;;5043200;28;20080;-75
2023/03/29 02:09:47;;;;;;;6.07;3.70;;;;;;;;;;5018522;28;20059;-75
2023/03/29 02:12:15;;;;;;;9.50;4.20;;;;;;;;;;5052961;28;20053;-74
2023/03/29 02:14:41;;;;;;;9.00;3.83;;;;;;;;;;5018284;28;20138;-75
2023/03/29 02:17:17;;;;;;;7.70;3.83;;;;;;;;;;5053067;28;20051;-75
2023/03/29 02:19:44;;;;;;;9.95;4.22;;;;;;;;;;5048650;28;20500;-75
2023/03/29 02:22:11;;;;;;;6.60;4.22;;;;;;;;;;5055048;28;20401;-74
2023/03/29 02:24:39;;;;;;;8.02;3.90;;;;;;;;;;5072031;28;20049;-75
2023/03/29 02:27:06;;;;;;;6.85;4.22;;;;;;;;;;5062031;28;20047;-75
2023/03/29 02:29:32;;;;;;;8.00;4.22;;;;;;;;;;5034498;28;20049;-74
2023/03/29 02:32:03;;;;;;;7.32;4.45;;;;;;;;;;5052543;28;20048;-75
2023/03/29 02:34:29;;;;;;;6.40;4.40;;;;;;;;;;5052344;28;20049;-74
2023/03/29 02:37:01;;;;;;;7.53;4.30;;;;;;;;;;5052493;28;20063;-76
2023/03/29 02:39:30;;;;;;;8.98;4.85;;;;;;;;;;5033882;28;20045;-74
2023/03/29 02:41:56;;;;;;;7.50;4.60;;;;;;;;;;5052552;28;20156;-74
2023/03/29 02:44:27;;;;;;;9.95;5.32;;;;;;;;;;5018197;28;20045;-74
2023/03/29 02:46:58;;;;;;;6.75;4.47;;;;;;;;;;5052350;28;20106;-74
2023/03/29 02:49:24;;;;;;;9.13;5.10;;;;;;;;;;5034297;28;20052;-74
2023/03/29 02:51:55;;;;;;;8.93;5.00;;;;;;;;;;5034424;28;20037;-74
2023/03/29 02:54:24;;;;;;;7.90;4.95;;;;;;;;;;5027775;28;20090;-74
2023/03/29 02:57:01;;;;;;;8.90;5.00;;;;;;;;;;5053675;28;20053;-74
2023/03/29 02:59:28;;;;;;;8.63;4.72;;;;;;;;;;5030822;28;20099;-74
2023/03/29 03:01:55;;;;;;;8.23;5.05;;;;;;;;;;5052289;28;20057;-74
2023/03/29 03:04:21;;;;;;;7.47;4.82;;;;;;;;;;5034043;28;20555;-74
2023/03/29 03:06:47;;;;;;;8.43;4.47;;;;;;;;;;5034480;28;20053;-74
2023/03/29 03:09:14;;;;;;;8.18;5.03;;;;;;;;;;5037883;28;20059;-74
2023/03/29 03:11:41;;;;;;;8.52;4.97;;;;;;;;;;5065596;28;20513;-74
2023/03/29 03:14:07;;;;;;;7.60;4.50;;;;;;;;;;5059693;28;20120;-74
2023/03/29 03:16:33;;;;;;;7.78;4.53;;;;;;;;;;5052100;28;20048;-74
2023/03/29 03:18:59;;;;;;;8.57;5.07;;;;;;;;;;5052188;28;20048;-74
2023/03/29 03:21:27;;;;;;;7.72;4.90;;;;;;;;;;5067082;28;20405;-74
2023/03/29 03:23:53;;;;;;;9.07;5.10;;;;;;;;;;5045183;28;20494;-75
2023/03/29 03:26:19;;;;;;;7.80;4.82;;;;;;;;;;5052105;28;20055;-74
2023/03/29 03:28:45;;;;;;;8.88;5.28;;;;;;;;;;5045424;28;20045;-74
2023/03/29 03:31:14;;;;;;;7.72;4.90;;;;;;;;;;5071840;28;20051;-74
2023/03/29 03:33:41;;;;;;;9.60;4.90;;;;;;;;;;5054124;28;20432;-75
2023/03/29 03:36:10;;;;;;;7.47;5.05;;;;;;;;;;5071972;28;20074;-75
2023/03/29 03:38:37;;;;;;;8.73;5.18;;;;;;;;;;5053858;28;20052;-74
2023/03/29 03:41:03;;;;;;;10.05;4.85;;;;;;;;;;5041338;28;20049;-74
2023/03/29 03:43:30;;;;;;;7.60;4.63;;;;;;;;;;5051710;28;20051;-75
2023/03/29 03:45:56;;;;;;;10.52;5.22;;;;;;;;;;5051590;28;20140;-74
2023/03/29 03:48:23;;;;;;;9.82;4.90;;;;;;;;;;5033864;28;20044;-75
2023/03/29 03:50:49;;;;;;;9.30;5.45;;;;;;;;;;5036867;28;20041;-74
2023/03/29 03:53:16;;;;;;;10.75;5.35;;;;;;;;;;5022176;28;20490;-75
2023/03/29 03:55:46;;;;;;;8.75;5.60;;;;;;;;;;5057569;28;20151;-75
2023/03/29 03:58:12;;;;;;;8.93;5.22;;;;;;;;;;5057504;28;20072;-74
2023/03/29 04:00:39;;;;;;;7.63;5.00;;;;;;;;;;5075624;28;20093;-75
2023/03/29 04:03:05;;;;;;;8.00;5.25;;;;;;;;;;5075779;28;20066;-75
2023/03/29 04:05:31;;;;;;;8.32;5.07;;;;;;;;;;5075394;28;20063;-75
2023/03/29 04:07:57;;;;;;;9.85;5.50;;;;;;;;;;5075454;28;20044;-74
2023/03/29 04:10:23;;;;;;;8.20;5.47;;;;;;;;;;5057352;28;20102;-74
2023/03/29 04:12:49;;;;;;;8.80;5.13;;;;;;;;;;5052354;28;20049;-75
2023/03/29 04:15:16;;;;;;;8.13;5.78;;;;;;;;;;5052514;28;20374;-74
2023/03/29 04:17:42;;;;;;;8.88;5.43;;;;;;;;;;5040524;28;20060;-74
2023/03/29 04:20:11;;;;;;;8.95;5.40;;;;;;;;;;5033757;28;20037;-75
2023/03/29 04:22:37;;;;;;;8.40;5.28;;;;;;;;;;5035220;28;20556;-74
2023/03/29 04:25:04;;;;;;;9.50;5.82;;;;;;;;;;5034084;28;20080;-74
2023/03/29 04:27:30;;;;;;;8.80;5.97;;;;;;;;;;5048135;28;20128;-74
2023/03/29 04:29:56;;;;;;;11.60;6.25;;;;;;;;;;5054761;28;20048;-74
2023/03/29 04:32:23;;;;;;;11.50;6.00;;;;;;;;;;5046760;28;20446;-74
2023/03/29 04:34:49;;;;;;;10.43;5.65;;;;;;;;;;5055904;28;20124;-74
2023/03/29 04:37:20;;;;;;;11.20;5.85;;;;;;;;;;5034639;28;20375;-74
2023/03/29 04:39:47;;;;;;;8.95;5.63;;;;;;;;;;5036741;28;20045;-74
2023/03/29 04:42:13;;;;;;;11.13;6.25;;;;;;;;;;5036882;28;20057;-74
2023/03/29 04:44:41;;;;;;;9.52;6.00;;;;;;;;;;5054720;28;20366;-74
2023/03/29 04:47:07;;;;;;;7.45;5.45;;;;;;;;;;5053172;28;20053;-74
2023/03/29 04:49:33;;;;;;;10.00;6.35;;;;;;;;;;5051804;28;20063;-74
2023/03/29 04:51:59;;;;;;;10.75;5.75;;;;;;;;;;5032517;28;20038;-74
2023/03/29 04:54:26;;;;;;;10.48;6.28;;;;;;;;;;5023716;28;20402;-74
2023/03/29 04:56:52;;;;;;;10.98;6.60;;;;;;;;;;5033027;28;20045;-74
2023/03/29 04:59:18;;;;;;;11.52;6.63;;;;;;;;;;5034129;28;20061;-74
2023/03/29 05:01:44;;;;;;;13.55;6.47;;;;;;;;;;5032705;28;20049;-74
2023/03/29 05:04:10;;;;;;;11.65;6.63;;;;;;;;;;5034156;28;20397;-74
2023/03/29 05:06:37;;;;;;;10.48;6.22;;;;;;;;;;5034517;28;20045;-74
2023/03/29 05:09:03;;;;;;;9.60;6.40;;;;;;;;;;5032304;28;20115;-74
2023/03/29 05:11:30;;;;;;;8.77;6.28;;;;;;;;;;5018315;28;20053;-74
2023/03/29 05:14:01;;;;;;;11.10;6.88;;;;;;;;;;5036212;28;20447;-74
2023/03/29 05:16:28;;;;;;;12.40;6.85;;;;;;;;;;5054100;28;20041;-74
2023/03/29 05:18:54;;;;;;;10.45;6.20;;;;;;;;;;5035875;28;20048;-74
2023/03/29 05:21:21;;;;;;;9.25;6.07;;;;;;;;;;5036070;28;20047;-74
2023/03/29 05:23:47;;;;;;;11.27;6.85;;;;;;;;;;5035625;28;20103;-74
2023/03/29 05:26:14;;;;;;;10.85;6.88;;;;;;;;;;5056502;28;20053;-74
2023/03/29 05:28:40;;;;;;;9.45;6.50;;;;;;;;;;5055828;28;20084;-74
2023/03/29 05:31:07;;;;;;;11.07;6.57;;;;;;;;;;5055707;28;20044;-74
2023/03/29 05:33:34;;;;;;;11.88;7.28;;;;;;;;;;5073784;28;20049;-74
2023/03/29 05:36:01;;;;;;;11.30;7.18;;;;;;;;;;5038990;28;20044;-74
2023/03/29 05:38:28;;;;;;;16.50;6.90;;;;;;;;;;5039179;28;20369;-75
2023/03/29 05:40:55;;;;;;;10.00;6.07;;;;;;;;;;5073363;28;20132;-74
2023/03/29 05:43:21;;;;;;;10.50;6.78;;;;;;;;;;5055430;28;20045;-76
2023/03/29 05:45:47;;;;;;;11.63;6.85;;;;;;;;;;5055489;28;20151;-76
2023/03/29 05:48:13;;;;;;;11.50;7.10;;;;;;;;;;5073301;28;20045;-76
2023/03/29 05:50:39;;;;;;;10.68;6.93;;;;;;;;;;5073267;28;20051;-76
2023/03/29 05:53:05;;;;;;;12.57;7.35;;;;;;;;;;5038526;28;20143;-76
2023/03/29 05:55:31;;;;;;;11.98;7.53;;;;;;;;;;5038174;28;20055;-76
2023/03/29 05:57:57;;;;;;;9.65;6.65;;;;;;;;;;5073018;28;20044;-76
2023/03/29 06:00:24;;;;;;;12.05;6.75;;;;;;;;;;5073093;28;20091;-76
2023/03/29 06:02:55;;;;;;;10.43;7.03;;;;;;;;;;5072528;28;20056;-76
2023/03/29 06:05:21;;;;;;;13.13;7.22;;;;;;;;;;5054297;28;20080;-76
2023/03/29 06:07:47;;;;;;;12.10;8.05;;;;;;;;;;5072742;28;20120;-76
2023/03/29 06:10:14;;;;;;;13.57;7.22;;;;;;;;;;5054441;28;20055;-76
2023/03/29 06:12:40;;;;;;;11.45;6.70;;;;;;;;;;5054089;28;20059;-75
2023/03/29 06:15:07;;;;;;;13.10;7.70;;;;;;;;;;5072228;28;20122;-75
2023/03/29 06:17:34;;;;;;;13.07;7.35;;;;;;;;;;5072364;28;20049;-74
2023/03/29 06:20:00;;;;;;;13.40;7.97;;;;;;;;;;5072416;28;20086;-75
2023/03/29 06:22:27;;;;;;;11.13;7.70;;;;;;;;;;5053327;28;20048;-75
2023/03/29 06:24:53;;;;;;;11.93;7.70;;;;;;;;;;5070080;28;20048;-75
2023/03/29 06:27:20;;;;;;;12.45;7.93;;;;;;;;;;5053666;28;20123;-75
2023/03/29 06:29:46;;;;;;;14.27;8.32;;;;;;;;;;5054245;28;20048;-75
2023/03/29 06:32:13;;;;;;;13.32;7.68;;;;;;;;;;5054327;28;20052;-75
2023/03/29 06:34:39;;;;;;;12.32;8.38;;;;;;;;;;5072204;28;20124;-75
2023/03/29 06:37:05;;;;;;;13.13;8.70;;;;;;;;;;5054380;28;20393;-75
2023/03/29 06:39:31;;;;;;;13.05;8.70;;;;;;;;;;5070541;28;20049;-75
2023/03/29 06:41:58;;;;;;;13.10;8.90;;;;;;;;;;5070341;28;20051;-75
2023/03/29 06:44:27;;;;;;;11.70;7.75;;;;;;;;;;5040841;28;20458;-74
2023/03/29 06:46:53;;;;;;;12.70;9.02;;;;;;;;;;5072344;28;20052;-75
2023/03/29 06:49:19;;;;;;;12.18;8.18;;;;;;;;;;5044154;28;20128;-75
2023/03/29 06:51:45;;;;;;;13.30;8.45;;;;;;;;;;5034297;28;20048;-75
2023/03/29 06:54:12;;;;;;;14.25;9.32;;;;;;;;;;5051619;28;20037;-75
2023/03/29 06:56:38;;;;;;;13.98;9.57;;;;;;;;;;5051953;28;20114;-75
2023/03/29 06:59:04;;;;;;;12.82;8.63;;;;;;;;;;5051829;28;20049;-75
2023/03/29 07:01:30;;;;;;;14.90;8.65;;;;;;;;;;5061543;28;20072;-75
2023/03/29 07:03:59;;;;;;;14.73;9.27;;;;;;;;;;5053558;28;20044;-75
2023/03/29 07:06:25;;;;;;;14.27;8.93;;;;;;;;;;5067011;28;20045;-75
2023/03/29 07:08:52;;;;;;;15.93;9.10;;;;;;;;;;5043205;28;20060;-75
2023/03/29 07:11:19;;;;;;;12.57;8.20;;;;;;;;;;5043613;28;20073;-75
2023/03/29 07:13:47;;;;;;;12.43;8.07;;;;;;;;;;5057076;28;20064;-76
2023/03/29 07:16:13;;;;;;;12.45;8.02;;;;;;;;;;5050380;28;20049;-76
2023/03/29 07:18:40;;;;;;;12.38;7.38;;;;;;;;;;5033615;28;20119;-76
2023/03/29 07:21:07;;;;;;;10.85;7.50;;;;;;;;;;5033841;28;20045;-76
2023/03/29 07:23:33;;;;;;;14.73;8.10;;;;;;;;;;5051624;28;20098;-75
2023/03/29 07:26:01;;;;;;;11.90;7.80;;;;;;;;;;5055737;28;20076;-75
2023/03/29 07:28:27;;;;;;;10.63;7.70;;;;;;;;;;5037318;28;20088;-75
2023/03/29 07:30:54;;;;;;;11.63;7.97;;;;;;;;;;5055687;28;20387;-75
2023/03/29 07:33:20;;;;;;;10.45;7.45;;;;;;;;;;5055290;28;20045;-75
2023/03/29 07:35:46;;;;;;;13.52;8.30;;;;;;;;;;5056284;28;20171;-74
2023/03/29 07:38:14;;;;;;;13.50;7.90;;;;;;;;;;5053994;28;20053;-75
2023/03/29 07:40:40;;;;;;;11.32;7.60;;;;;;;;;;5053853;28;20048;-74
2023/03/29 07:43:09;;;;;;;11.43;7.35;;;;;;;;;;5067965;28;20129;-75
2023/03/29 07:45:35;;;;;;;14.52;7.68;;;;;;;;;;5074261;28;20345;-74
2023/03/29 07:48:02;;;;;;;14.10;7.78;;;;;;;;;;5062217;28;20053;-77
2023/03/29 07:50:31;;;;;;;12.00;7.78;;;;;;;;;;5055298;28;20095;-75
2023/03/29 07:52:57;;;;;;;10.90;7.57;;;;;;;;;;5058977;28;20379;-75
2023/03/29 07:55:23;;;;;;;13.95;7.93;;;;;;;;;;5056512;28;20060;-74
2023/03/29 07:57:49;;;;;;;11.48;8.05;;;;;;;;;;5037309;28;20148;-76
2023/03/29 08:00:16;;;;;;;10.88;7.45;;;;;;;;;;5056106;28;20460;-76
2023/03/29 08:02:43;;;;;;;13.18;8.48;;;;;;;;;;5055084;28;20223;-76
2023/03/29 08:05:09;;;;;;;11.85;7.82;;;;;;;;;;5070344;28;20053;-76
2023/03/29 08:07:35;;;;;;;12.95;8.38;;;;;;;;;;5055043;28;20123;-76
2023/03/29 08:10:02;;;;;;;12.40;7.43;;;;;;;;;;5066321;28;20040;-76
2023/03/29 08:12:28;;;;;;;13.77;8.30;;;;;;;;;;5053214;28;20080;-76
2023/03/29 08:14:54;;;;;;;12.30;7.97;;;;;;;;;;5054735;28;20059;-76
2023/03/29 08:17:20;;;;;;;13.18;8.20;;;;;;;;;;5053839;28;20068;-76
2023/03/29 08:19:46;;;;;;;15.80;8.43;;;;;;;;;;5078960;28;20044;-76
2023/03/29 08:22:12;;;;;;;11.80;7.70;;;;;;;;;;5039576;28;20063;-76
2023/03/29 08:24:38;;;;;;;12.15;7.88;;;;;;;;;;5054645;28;20123;-76
2023/03/29 08:27:07;;;;;;;11.45;7.93;;;;;;;;;;5054678;28;20102;-76
2023/03/29 08:29:33;;;;;;;12.68;7.68;;;;;;;;;;5054808;28;20447;-76
2023/03/29 08:31:59;;;;;;;18.48;9.00;;;;;;;;;;5055481;28;20521;-76
2023/03/29 08:34:25;;;;;;;12.25;7.75;;;;;;;;;;5060982;28;20049;-75
2023/03/29 08:36:52;;;;;;;13.40;7.95;;;;;;;;;;5070958;28;20053;-75
2023/03/29 08:39:18;;;;;;;12.63;7.88;;;;;;;;;;5056408;28;20404;-74
2023/03/29 08:41:51;;;;;;;12.65;7.75;;;;;;;;;;5074060;28;20044;-74
2023/03/29 08:44:35;;;;;;;12.13;7.88;;;;;;;;;;5056875;28;20032;-74
2023/03/29 08:47:20;;;;;;;13.35;7.78;;;;;;;;;;5054622;28;20102;-75
2023/03/29 08:49:49;;;;;;;13.07;7.53;;;;;;;;;;5068581;28;20048;-75
2023/03/29 08:52:24;;;;;;;13.00;7.88;;;;;;;;;;5069892;28;20037;-76
2023/03/29 08:54:52;;;;;;;11.00;7.38;;;;;;;;;;5035866;28;20041;-74
2023/03/29 08:57:25;;;;;;;11.75;7.95;;;;;;;;;;5037193;28;20125;-74
2023/03/29 08:59:52;;;;;;;13.15;7.55;;;;;;;;;;5073940;28;20052;-74
2023/03/29 09:02:22;;;;;;;14.00;7.30;;;;;;;;;;5073309;28;20116;-75
2023/03/29 09:04:49;;;;;;;12.48;7.53;;;;;;;;;;5055295;28;20055;-74
2023/03/29 09:07:15;;;;;;;13.48;7.50;;;;;;;;;;5073528;28;20044;-74
2023/03/29 09:09:42;;;;;;;12.77;7.45;;;;;;;;;;5073852;28;20063;-76
2023/03/29 09:12:28;;;;;;;12.35;7.38;;;;;;;;;;5071810;28;20055;-76
2023/03/29 09:14:57;;;;;;;12.05;7.32;;;;;;;;;;5073709;28;20054;-76
2023/03/29 09:17:42;;;;;;;15.02;7.43;;;;;;;;;;5056172;28;20139;-76
2023/03/29 09:20:32;;;;;;;15.40;6.82;;;;;;;;;;5073525;28;20516;-76
2023/03/29 09:23:12;;;;;;;14.02;7.65;;;;;;;;;;5073627;28;20099;-76
2023/03/29 09:25:46;;;;;;;12.50;7.05;;;;;;;;;;5068750;28;20094;-73
2023/03/29 09:28:20;;;;;;;13.98;7.70;;;;;;;;;;5063534;28;20140;-75
2023/03/29 09:31:09;;;;;;;13.25;7.10;;;;;;;;;;5037452;28;20055;-76
2023/03/29 09:33:44;;;;;;;13.43;7.43;;;;;;;;;;5068523;28;20041;-76
2023/03/29 09:36:16;;;;;;;12.52;7.60;;;;;;;;;;5055498;28;20128;-76
2023/03/29 09:38:43;;;;;;;13.85;7.60;;;;;;;;;;5056097;28;20131;-76
2023/03/29 09:41:28;;;;;;;13.52;7.82;;;;;;;;;;5055354;28;20044;-76
2023/03/29 09:43:55;;;;;;;12.98;7.63;;;;;;;;;;5060510;28;20060;-76
2023/03/29 09:46:45;;;;;;;14.18;7.95;;;;;;;;;;5071657;28;20051;-76
2023/03/29 09:49:15;;;;;;;16.73;8.40;;;;;;;;;;5025701;28;20173;-76
2023/03/29 09:51:42;;;;;;;20.05;7.95;;;;;;;;;;5051715;28;20045;-76
2023/03/29 09:54:10;;;;;;;14.23;8.50;;;;;;;;;;5043906;28;20407;-76
2023/03/29 09:56:36;;;;;;;16.83;9.00;;;;;;;;;;5072681;28;20052;-76
2023/03/29 09:59:03;;;;;;;17.05;9.18;;;;;;;;;;5063850;28;20048;-76
2023/03/29 10:01:40;;;;;;;15.80;8.85;;;;;;;;;;5057819;28;20072;-76
2023/03/29 10:04:07;;;;;;;15.13;8.60;;;;;;;;;;5038241;28;20052;-76
2023/03/29 10:06:34;;;;;;;18.40;9.23;;;;;;;;;;5055319;28;20384;-76
2023/03/29 10:09:01;;;;;;;16.80;9.68;;;;;;;;;;5054845;28;20040;-76
2023/03/29 10:11:34;;;;;;;18.88;9.55;;;;;;;;;;5035733;28;21202;-76
2023/03/29 10:14:02;;;;;;;17.48;9.18;;;;;;;;;;5067994;28;20045;-76
2023/03/29 10:16:44;;;;;;;19.05;10.00;;;;;;;;;;5068284;28;20072;-75
2023/03/29 10:19:18;;;;;;;17.33;9.48;;;;;;;;;;5035691;28;20049;-75
2023/03/29 10:21:48;;;;;;;18.60;9.50;;;;;;;;;;5068363;28;20393;-75
2023/03/29 10:24:18;;;;;;;15.95;9.73;;;;;;;;;;5065107;28;20044;-75
2023/03/29 10:26:44;;;;;;;14.43;9.60;;;;;;;;;;5052083;28;20433;-75
2023/03/29 10:29:12;;;;;;;15.38;10.15;;;;;;;;;;5050828;28;20048;-75
2023/03/29 10:31:41;;;;;;;19.38;9.32;;;;;;;;;;5052461;28;20147;-76
2023/03/29 10:34:08;;;;;;;15.05;9.52;;;;;;;;;;5052386;28;20132;-75
2023/03/29 10:36:35;;;;;;;22.63;9.60;;;;;;;;;;5052117;28;20379;-75
2023/03/29 10:39:03;;;;;;;16.00;10.20;;;;;;;;;;5051370;28;20060;-75
2023/03/29 10:41:33;;;;;;;16.33;9.60;;;;;;;;;;5066811;28;20048;-75
2023/03/29 10:43:59;;;;;;;17.00;10.25;;;;;;;;;;5049689;28;20063;-75
2023/03/29 10:46:25;;;;;;;17.05;10.30;;;;;;;;;;5048369;28;20049;-75
2023/03/29 10:48:56;;;;;;;16.50;10.63;;;;;;;;;;5065739;28;20056;-75
2023/03/29 10:51:23;;;;;;;17.35;10.48;;;;;;;;;;5063129;28;20062;-75
2023/03/29 10:53:49;;;;;;;17.30;10.55;;;;;;;;;;5054175;28;20564;-74
2023/03/29 10:56:35;;;;;;;19.90;10.80;;;;;;;;;;5044592;28;20053;-74
2023/03/29 10:59:02;;;;;;;;;;;;;;;;;;5035340;28;20086;-74
2023/03/29 11:01:40;;;;;;;19.98;11.00;;;;;;;;;;5070124;28;19928;-73
2023/03/29 11:04:27;;;;;;;19.25;11.02;;;;;;;;;;5052540;28;20048;-74
2023/03/29 11:07:11;;;;;;;17.33;10.68;;;;;;;;;;5054974;28;20048;-73
2023/03/29 11:09:46;;;;;;;19.10;10.93;;;;;;;;;;5050022;28;20076;-75
2023/03/29 11:12:19;;;;;;;16.73;11.05;;;;;;;;;;5050178;28;20513;-75
2023/03/29 11:15:04;;;;;;;18.55;10.73;;;;;;;;;;5030937;28;20108;-75
2023/03/29 11:17:33;;;;;;;14.90;9.77;;;;;;;;;;5029797;28;20052;-75
2023/03/29 11:20:20;;;;;;;19.30;11.45;;;;;;;;;;5032200;28;20122;-75
2023/03/29 11:22:46;;;;;;;17.83;10.20;;;;;;;;;;5031916;28;20107;-75
2023/03/29 11:25:13;;;;;;;18.23;10.10;;;;;;;;;;5015888;28;20045;-76
2023/03/29 11:27:45;;;;;;;15.00;9.98;;;;;;;;;;5049614;28;20309;-75
2023/03/29 11:30:14;;;;;;;15.57;9.35;;;;;;;;;;5050545;28;20543;-75
2023/03/29 11:32:40;;;;;;;16.77;9.80;;;;;;;;;;5016771;28;20069;-75
2023/03/29 11:35:12;;;;;;;17.85;10.07;;;;;;;;;;5033573;28;20205;-75
2023/03/29 11:37:49;;;;;;;17.08;9.88;;;;;;;;;;5049903;28;20045;-75
2023/03/29 11:40:21;;;;;;;16.50;10.48;;;;;;;;;;5051354;28;20149;-75
2023/03/29 11:42:50;;;;;;;17.63;10.15;;;;;;;;;;5066820;28;20037;-75
2023/03/29 11:45:23;;;;;;;18.17;10.48;;;;;;;;;;5051468;28;20110;-75
2023/03/29 11:47:50;;;;;;;15.15;10.35;;;;;;;;;;5066892;28;20045;-75
2023/03/29 11:50:21;;;;;;;17.63;10.70;;;;;;;;;;5051121;28;20490;-77
2023/03/29 11:52:47;;;;;;;17.38;10.75;;;;;;;;;;5051091;28;20509;-75
2023/03/29 11:55:34;;;;;;;15.05;9.88;;;;;;;;;;5066817;28;20052;-75
2023/03/29 11:58:12;;;;;;;15.68;10.50;;;;;;;;;;5033169;28;20041;-75
2023/03/29 12:00:41;;;;;;;15.07;9.75;;;;;;;;;;5051328;28;20041;-75
2023/03/29 12:03:10;;;;;;;16.48;10.13;;;;;;;;;;5066662;28;20140;-75
2023/03/29 12:05:36;;;;;;;14.15;9.88;;;;;;;;;;5066820;28;20048;-75
2023/03/29 12:08:08;;;;;;;14.35;10.05;;;;;;;;;;5051500;28;20053;-75
2023/03/29 12:10:37;;;;;;;13.32;9.60;;;;;;;;;;5063367;28;20044;-75
2023/03/29 12:13:05;;;;;;;12.75;9.70;;;;;;;;;;5056520;28;20049;-76
2023/03/29 12:15:41;;;;;;;12.55;9.40;;;;;;;;;;5065973;28;20049;-75
2023/03/29 12:18:16;;;;;;;13.20;9.30;;;;;;;;;;5037123;28;20120;-75
2023/03/29 12:20:46;;;;;;;12.95;9.23;;;;;;;;;;5070235;28;20210;-75
2023/03/29 12:23:14;;;;;;;11.48;8.63;;;;;;;;;;5075022;28;20439;-75
2023/03/29 12:25:51;;;;;;;13.25;8.75;;;;;;;;;;5074774;28;20063;-75
2023/03/29 12:28:20;;;;;;;11.95;8.95;;;;;;;;;;5055147;28;20057;-75
2023/03/29 12:31:00;;;;;;;12.73;8.45;;;;;;;;;;5071447;28;20036;-76
2023/03/29 12:33:43;;;;;;;11.55;8.65;;;;;;;;;;5036468;28;20127;-76
2023/03/29 12:36:18;;;;;;;11.63;8.27;;;;;;;;;;5053811;28;20041;-75
2023/03/29 12:38:46;;;;;;;10.93;7.97;;;;;;;;;;5053451;28;20048;-76
2023/03/29 12:41:17;;;;;;;12.10;8.55;;;;;;;;;;5050905;28;20107;-76
2023/03/29 12:43:44;;;;;;;11.82;8.30;;;;;;;;;;5069486;28;20508;-76
2023/03/29 12:46:15;;;;;;;12.35;8.02;;;;;;;;;;5054038;28;20040;-76
2023/03/29 12:48:42;;;;;;;11.70;8.13;;;;;;;;;;5046538;28;20082;-75
2023/03/29 12:51:11;;;;;;;10.90;7.47;;;;;;;;;;5067965;28;20417;-75
2023/03/29 12:53:39;;;;;;;12.70;8.43;;;;;;;;;;5042624;28;20473;-76
2023/03/29 12:56:07;;;;;;;14.15;8.45;;;;;;;;;;5020111;28;20133;-77
2023/03/29 12:58:39;;;;;;;12.48;7.95;;;;;;;;;;5055547;28;20045;-75
2023/03/29 13:01:31;;;;;;;10.02;7.90;;;;;;;;;;5054089;28;20450;-75
2023/03/29 13:04:00;;;;;;;10.73;7.78;;;;;;;;;;5016665;28;20110;-75
2023/03/29 13:06:45;;;;;;;13.23;7.60;;;;;;;;;;5054016;28;20443;-75
2023/03/29 13:09:28;;;;;;;13.65;8.23;;;;;;;;;;5054303;28;20055;-77
2023/03/29 13:12:06;;;;;;;15.23;8.65;;;;;;;;;;5035642;28;20107;-74
2023/03/29 13:14:34;;;;;;;11.27;7.88;;;;;;;;;;5055120;28;20057;-75
2023/03/29 13:17:04;;;;;;;10.85;8.45;;;;;;;;;;5063275;28;20136;-75
2023/03/29 13:19:34;;;;;;;12.50;8.20;;;;;;;;;;5053738;28;20482;-75
2023/03/29 13:22:18;;;;;;;12.68;8.30;;;;;;;;;;5054758;28;20059;-75
2023/03/29 13:25:01;;;;;;;10.98;8.13;;;;;;;;;;5035645;28;20041;-75
2023/03/29 13:27:42;;;;;;;12.88;8.30;;;;;;;;;;5050684;28;20052;-74
2023/03/29 13:30:14;;;;;;;10.38;8.05;;;;;;;;;;5053178;28;20048;-75
2023/03/29 13:32:52;;;;;;;11.60;8.60;;;;;;;;;;5052580;28;20120;-75
2023/03/29 13:35:34;;;;;;;12.85;8.68;;;;;;;;;;5052950;28;20153;-75
2023/03/29 13:38:12;;;;;;;13.48;8.60;;;;;;;;;;5068205;28;20044;-75
2023/03/29 13:40:41;;;;;;;12.48;8.77;;;;;;;;;;5059687;28;20040;-75
2023/03/29 13:43:11;;;;;;;12.52;8.77;;;;;;;;;;5049765;28;20044;-75
2023/03/29 13:45:37;;;;;;;11.15;8.40;;;;;;;;;;5055104;28;20056;-75
2023/03/29 13:48:05;;;;;;;12.18;8.55;;;;;;;;;;5056098;28;20040;-75
2023/03/29 13:50:37;;;;;;;14.07;8.18;;;;;;;;;;5049266;28;20056;-75
2023/03/29 13:53:08;;;;;;;13.23;8.90;;;;;;;;;;5054464;28;20041;-75
2023/03/29 13:55:40;;;;;;;14.63;9.00;;;;;;;;;;5049449;28;20132;-75
2023/03/29 13:58:13;;;;;;;12.60;8.60;;;;;;;;;;5046624;28;20045;-75
2023/03/29 14:00:44;;;;;;;14.30;8.48;;;;;;;;;;5041856;28;20049;-75
2023/03/29 14:03:14;;;;;;;12.90;9.30;;;;;;;;;;5041717;28;20055;-76
2023/03/29 14:05:43;;;;;;;12.13;8.60;;;;;;;;;;5037000;28;20045;-77
2023/03/29 14:08:20;;;;;;;12.55;8.45;;;;;;;;;;5035971;28;20098;-75
2023/03/29 14:10:46;;;;;;;13.80;8.63;;;;;;;;;;5067772;28;20135;-75
2023/03/29 14:13:13;;;;;;;13.15;8.70;;;;;;;;;;5052463;28;20564;-75
2023/03/29 14:15:49;;;;;;;12.13;8.45;;;;;;;;;;5066038;28;20053;-74
2023/03/29 14:18:15;;;;;;;;;;;;;;;;;;5053565;28;20049;-75
2023/03/29 14:20:49;;;;;;;12.07;8.27;;;;;;;;;;5037556;28;20262;-75
2023/03/29 14:23:19;;;;;;;13.30;8.77;;;;;;;;;;5047421;28;20047;-75
2023/03/29 14:25:45;;;;;;;12.55;8.35;;;;;;;;;;5054689;28;20515;-75
2023/03/29 14:28:22;;;;;;;12.32;7.90;;;;;;;;;;5038067;28;20055;-75
2023/03/29 14:30:48;;;;;;;13.48;8.40;;;;;;;;;;5065563;28;20045;-75
2023/03/29 14:33:24;;;;;;;15.23;7.70;;;;;;;;;;5059687;28;20431;-75
2023/03/29 14:35:51;;;;;;;14.45;7.60;;;;;;;;;;5062143;28;20037;-74
2023/03/29 14:38:17;;;;;;;10.93;7.60;;;;;;;;;;5071517;28;20040;-75
2023/03/29 14:40:43;;;;;;;11.65;7.82;;;;;;;;;;5053539;28;20119;-75
2023/03/29 14:43:14;;;;;;;13.25;7.90;;;;;;;;;;5072144;28;20040;-75
2023/03/29 14:45:40;;;;;;;10.80;7.68;;;;;;;;;;5071383;28;20041;-74
2023/03/29 14:48:06;;;;;;;10.55;7.57;;;;;;;;;;5070136;28;20048;-75